createdAt,value
2023-04-04T00:01:39.180Z,99.90
2023-04-04T00:06:45.856Z,99.90
2023-04-04T00:11:49.313Z,99.90
2023-04-04T00:16:52.673Z,99.90
2023-04-04T00:21:57.531Z,99.90
2023-04-04T00:27:00.937Z,99.90
2023-04-04T00:32:04.381Z,99.90
2023-04-04T00:37:12.314Z,99.90
2023-04-04T00:42:15.771Z,99.90
2023-04-04T00:47:19.146Z,99.90
2023-04-04T00:52:23.920Z,99.90
2023-04-04T00:57:28.921Z,99.90
2023-04-04T01:02:32.411Z,99.90
2023-04-04T01:07:37.710Z,99.90
2023-04-04T01:12:42.809Z,99.90
2023-04-04T01:17:46.370Z,99.90
2023-04-04T01:22:52.954Z,99.90
2023-04-04T01:27:57.601Z,99.90
2023-04-04T01:33:08.525Z,99.90
2023-04-04T01:38:19.401Z,99.90
2023-04-04T01:43:24.213Z,99.90
2023-04-04T01:48:28.026Z,99.90
2023-04-04T01:53:31.397Z,99.90
2023-04-04T01:58:36.154Z,99.90
2023-04-04T02:03:39.520Z,99.90
2023-04-04T02:08:43.387Z,99.90
2023-04-04T02:13:48.547Z,99.90
2023-04-04T02:18:51.919Z,99.90
2023-04-04T02:23:55.386Z,99.90
2023-04-04T02:29:00.570Z,99.90
2023-04-04T02:34:04.327Z,99.90
2023-04-04T02:39:07.677Z,99.90
2023-04-04T02:44:12.481Z,99.90
2023-04-04T02:49:15.790Z,99.90
2023-04-04T02:54:19.067Z,99.90
2023-04-04T02:59:23.774Z,99.90
2023-04-04T03:04:27.366Z,99.90
2023-04-04T03:09:30.578Z,99.90
2023-04-04T03:14:35.278Z,99.90
2023-04-04T03:19:38.622Z,99.90
2023-04-04T03:24:41.845Z,99.90
2023-04-04T03:29:46.518Z,99.90
2023-04-04T03:34:49.828Z,99.90
2023-04-04T03:39:53.110Z,99.90
2023-04-04T03:44:57.758Z,99.90
2023-04-04T03:50:01.242Z,99.90
2023-04-04T03:55:04.546Z,99.90
2023-04-04T04:00:11.851Z,99.90
2023-04-04T04:05:15.281Z,99.90
2023-04-04T04:10:18.527Z,99.90
2023-04-04T04:15:23.292Z,99.90
2023-04-04T04:20:26.644Z,99.90
2023-04-04T04:25:30.038Z,99.90
2023-04-04T04:30:34.869Z,99.90
2023-04-04T04:35:39.144Z,99.90
2023-04-04T04:40:43.069Z,99.90
2023-04-04T04:45:47.786Z,99.90
2023-04-04T04:50:51.374Z,99.90
2023-04-04T04:55:54.746Z,99.90
2023-04-04T05:00:59.424Z,99.90
2023-04-04T05:06:02.812Z,99.90
2023-04-04T05:11:06.124Z,99.90
2023-04-04T05:16:11.088Z,99.90
2023-04-04T05:21:14.418Z,99.90
2023-04-04T05:26:17.834Z,99.90
2023-04-04T05:31:22.690Z,99.90
2023-04-04T05:36:26.108Z,99.90
2023-04-04T05:41:29.464Z,99.90
2023-04-04T05:46:34.196Z,99.90
2023-04-04T05:51:38.504Z,99.90
2023-04-04T05:56:41.949Z,99.90
2023-04-04T06:01:47.651Z,99.90
2023-04-04T06:06:53.565Z,99.90
2023-04-04T06:11:58.361Z,99.90
2023-04-04T06:17:09.849Z,99.90
2023-04-04T06:22:13.102Z,99.90
2023-04-04T06:27:16.627Z,99.90
2023-04-04T06:32:24.352Z,99.90
2023-04-04T06:37:27.793Z,99.90
2023-04-04T06:42:31.913Z,99.90
2023-04-04T06:47:38.944Z,99.90
2023-04-04T06:52:42.479Z,99.90
2023-04-04T06:57:46.857Z,99.90
2023-04-04T07:02:51.676Z,99.90
2023-04-04T07:07:58.405Z,96.20
2023-04-04T07:13:01.730Z,95.70
2023-04-04T07:18:06.435Z,95.10
2023-04-04T07:23:14.086Z,92.60
2023-04-04T07:28:17.463Z,93.00
2023-04-04T07:33:22.115Z,92.90
2023-04-04T07:38:25.453Z,93.10
2023-04-04T07:43:33.002Z,92.00
2023-04-04T07:48:37.681Z,93.30
2023-04-04T07:53:46.771Z,92.10
2023-04-04T07:58:52.389Z,91.00
2023-04-04T08:03:57.173Z,91.10
2023-04-04T08:09:02.654Z,91.30
2023-04-04T08:14:06.217Z,91.70
2023-04-04T08:19:12.617Z,90.90
2023-04-04T08:24:15.891Z,91.10
2023-04-04T08:29:21.291Z,93.50
2023-04-04T08:34:25.948Z,94.80
2023-04-04T08:39:29.184Z,98.10
2023-04-04T08:44:34.673Z,96.90
2023-04-04T08:49:44.039Z,97.00
2023-04-04T08:54:49.291Z,94.00
2023-04-04T08:59:54.224Z,94.30
2023-04-04T09:05:06.437Z,94.20
2023-04-04T09:10:17.284Z,94.60
2023-04-04T09:15:21.770Z,91.80
2023-04-04T09:20:42.906Z,92.50
2023-04-04T09:31:00.021Z,92.40
2023-04-04T09:36:10.366Z,91.00
2023-04-04T09:41:16.645Z,92.50
2023-04-04T09:46:22.935Z,92.30
2023-04-04T09:51:35.900Z,91.50
2023-04-04T09:56:40.286Z,90.80
2023-04-04T10:01:45.704Z,91.00
2023-04-04T10:06:57.415Z,93.30
2023-04-04T10:12:15.045Z,92.50
2023-04-04T10:17:18.633Z,94.30
2023-04-04T10:22:24.302Z,92.80
2023-04-04T10:27:27.989Z,93.60
2023-04-04T10:32:44.066Z,94.60
2023-04-04T10:37:56.810Z,95.40
2023-04-04T10:48:32.940Z,94.40
2023-04-04T10:53:41.696Z,96.00
2023-04-04T10:58:51.529Z,95.40
2023-04-04T11:04:20.341Z,96.80
2023-04-04T11:09:50.834Z,98.10
2023-04-04T11:15:16.461Z,96.30
2023-04-04T11:25:59.593Z,94.70
2023-04-04T11:31:26.883Z,95.50
2023-04-04T11:36:54.845Z,95.70
2023-04-04T11:42:08.321Z,94.70
2023-04-04T11:47:13.740Z,96.70
2023-04-04T11:52:18.869Z,95.80
2023-04-04T11:57:23.604Z,96.10
2023-04-04T12:02:32.177Z,95.40
2023-04-04T12:07:37.163Z,96.60
2023-04-04T12:12:42.933Z,98.10
2023-04-04T12:17:49.191Z,95.30
2023-04-04T12:22:55.972Z,94.80
2023-04-04T12:28:02.006Z,95.30
2023-04-04T12:33:05.975Z,94.80
2023-04-04T12:38:10.926Z,97.20
2023-04-04T12:43:20.859Z,98.50
2023-04-04T12:48:34.295Z,95.40
2023-04-04T12:53:52.288Z,94.80
2023-04-04T12:59:03.838Z,96.40
2023-04-04T13:04:10.005Z,96.40
2023-04-04T13:09:19.216Z,95.50
2023-04-04T13:14:26.671Z,95.10
2023-04-04T13:19:30.716Z,95.60
2023-04-04T13:24:33.962Z,95.30
2023-04-04T13:29:39.035Z,95.10
2023-04-04T13:34:42.703Z,95.50
2023-04-04T13:39:49.970Z,94.80
2023-04-04T13:44:54.585Z,95.70
2023-04-04T13:49:57.963Z,94.70
2023-04-04T13:55:02.437Z,93.80
2023-04-04T14:00:11.385Z,95.00
2023-04-04T14:05:14.806Z,94.70
2023-04-04T14:10:18.285Z,95.90
2023-04-04T14:15:24.998Z,95.90
2023-04-04T14:20:28.607Z,96.10
2023-04-04T14:25:32.057Z,98.10
2023-04-04T14:30:41.014Z,95.20
2023-04-04T14:35:44.344Z,94.90
2023-04-04T14:40:49.482Z,95.00
2023-04-04T14:45:57.508Z,95.60
2023-04-04T14:51:00.908Z,94.30
2023-04-04T14:56:04.772Z,95.80
2023-04-04T15:01:12.406Z,94.20
2023-04-04T15:06:16.225Z,94.90
2023-04-04T15:11:23.252Z,94.70
2023-04-04T15:16:30.216Z,94.70
2023-04-04T15:21:34.126Z,95.10
2023-04-04T15:26:43.176Z,94.70
2023-04-04T15:31:50.826Z,94.10
2023-04-04T15:36:54.445Z,95.10
2023-04-04T15:42:03.162Z,94.30
2023-04-04T15:47:07.939Z,94.70
2023-04-04T15:52:12.127Z,95.70
2023-04-04T15:57:15.416Z,94.60
2023-04-04T16:02:21.048Z,95.20
2023-04-04T16:07:24.439Z,95.20
2023-04-04T16:12:28.212Z,95.10
2023-04-04T16:17:33.380Z,94.50
2023-04-04T16:22:36.729Z,94.80
2023-04-04T16:27:40.254Z,95.00
2023-04-04T16:32:46.658Z,95.60
2023-04-04T16:37:49.946Z,95.90
2023-04-04T16:42:53.480Z,96.00
2023-04-04T16:47:58.306Z,96.10
2023-04-04T16:53:03.449Z,96.10
2023-04-04T16:58:07.090Z,96.00
2023-04-04T17:03:12.083Z,95.80
2023-04-04T17:08:15.474Z,95.80
2023-04-04T17:13:20.054Z,96.00
2023-04-04T17:18:24.960Z,96.70
2023-04-04T17:23:30.276Z,96.80
2023-04-04T17:28:33.617Z,96.40
2023-04-04T17:33:38.203Z,96.70
2023-04-04T17:38:42.012Z,97.60
2023-04-04T17:43:45.743Z,98.20
2023-04-04T17:48:51.518Z,98.70
2023-04-04T17:53:55.168Z,99.00
2023-04-04T17:58:58.913Z,99.60
2023-04-04T18:04:05.182Z,99.50
2023-04-04T18:09:11.379Z,99.80
2023-04-04T18:14:16.167Z,99.90
2023-04-04T18:19:20.929Z,99.90
2023-04-04T18:24:26.221Z,99.90
2023-04-04T18:29:31.750Z,99.90
2023-04-04T18:34:36.448Z,99.90
2023-04-04T18:39:40.092Z,99.90
2023-04-04T18:44:43.614Z,99.90
2023-04-04T18:49:48.313Z,99.90
2023-04-04T18:54:52.889Z,99.90
2023-04-04T18:59:56.384Z,99.90
2023-04-04T19:05:04.699Z,99.90
2023-04-04T19:10:10.019Z,99.90
2023-04-04T19:15:13.411Z,99.90
2023-04-04T19:20:18.431Z,99.90
2023-04-04T19:25:23.527Z,99.90
2023-04-04T19:30:47.538Z,99.90
2023-04-04T19:35:59.170Z,99.90
2023-04-04T19:41:04.478Z,99.90
2023-04-04T19:46:10.986Z,99.90
2023-04-04T19:51:47.248Z,99.90
2023-04-04T19:56:52.952Z,99.90
2023-04-04T20:02:00.513Z,99.90
2023-04-04T20:07:04.425Z,99.90
2023-04-04T20:12:11.969Z,99.90
2023-04-04T20:17:19.924Z,99.90
2023-04-04T20:22:24.406Z,99.90
2023-04-04T20:27:29.433Z,99.90
2023-04-04T20:32:32.880Z,99.90
2023-04-04T20:37:37.018Z,99.90
2023-04-04T20:42:42.375Z,99.90
2023-04-04T20:47:47.708Z,99.90
2023-04-04T20:52:53.522Z,99.90
2023-04-04T20:58:00.345Z,99.90
2023-04-04T21:03:11.068Z,99.90
2023-04-04T21:08:39.859Z,99.90
2023-04-04T21:13:46.474Z,99.90
2023-04-04T21:18:49.756Z,99.90
2023-04-04T21:23:54.377Z,99.90
2023-04-04T21:29:00.497Z,99.90
2023-04-04T21:34:12.756Z,99.90
2023-04-04T21:39:21.831Z,99.90
2023-04-04T21:44:27.672Z,99.90
2023-04-04T21:49:31.037Z,99.90
2023-04-04T21:54:34.350Z,99.90
2023-04-04T21:59:40.843Z,99.90
2023-04-04T22:04:44.465Z,99.90
2023-04-04T22:09:47.753Z,99.90
2023-04-04T22:14:53.606Z,99.90
2023-04-04T22:19:59.958Z,99.90
2023-04-04T22:25:06.217Z,99.90
2023-04-04T22:30:14.924Z,99.90
2023-04-04T22:35:18.442Z,99.90
2023-04-04T22:40:22.396Z,99.90
2023-04-04T22:45:29.681Z,99.90
2023-04-04T22:50:35.466Z,99.90
2023-04-04T22:55:38.715Z,99.90
2023-04-04T23:00:43.914Z,99.90
2023-04-04T23:05:47.183Z,99.90
2023-04-04T23:10:50.544Z,99.90
2023-04-04T23:15:55.744Z,99.90
2023-04-04T23:21:01.379Z,99.90
2023-04-04T23:26:06.322Z,99.90
2023-04-04T23:31:11.016Z,99.90
2023-04-04T23:36:15.818Z,99.90
2023-04-04T23:41:19.161Z,99.90
2023-04-04T23:46:24.061Z,99.90
2023-04-04T23:51:30.375Z,99.90
2023-04-04T23:56:33.678Z,99.90
